createdAt,value
2022-11-10T00:02:20.952Z,100652.09
2022-11-10T00:04:47.333Z,100660.66
2022-11-10T00:07:15.187Z,100664.91
2022-11-10T00:09:41.629Z,100672.88
2022-11-10T00:12:08.003Z,100670.19
2022-11-10T00:14:53.033Z,100668.47
2022-11-10T00:17:19.453Z,100678.25
2022-11-10T00:19:45.796Z,100679.94
2022-11-10T00:22:12.177Z,100680.06
2022-11-10T00:24:38.562Z,100681.91
2022-11-10T00:27:04.917Z,100674.81
2022-11-10T00:29:31.305Z,100680.34
2022-11-10T00:31:57.762Z,100681.31
2022-11-10T00:34:25.180Z,100679.59
2022-11-10T00:36:51.556Z,100692.91
2022-11-10T00:39:17.947Z,100682.16
2022-11-10T00:41:44.345Z,100685.72
2022-11-10T00:44:10.730Z,100688.41
2022-11-10T00:46:37.113Z,100685.81
2022-11-10T00:49:03.542Z,100682.16
2022-11-10T00:51:30.506Z,100682.16
2022-11-10T00:53:56.975Z,100671.66
2022-11-10T00:59:04.173Z,100679.59
2022-11-10T01:01:30.613Z,100678.63
2022-11-10T01:03:57.042Z,100677.66
2022-11-10T01:06:23.421Z,100675.78
2022-11-10T01:08:49.841Z,100682.03
2022-11-10T01:11:17.637Z,100672.13
2022-11-10T01:13:44.225Z,100678.25
2022-11-10T01:16:12.866Z,100675.56
2022-11-10T01:18:39.405Z,100673.84
2022-11-10T01:21:06.042Z,100672.88
2022-11-10T01:23:32.543Z,100675.44
2022-11-10T01:26:00.227Z,100675.44
2022-11-10T01:28:26.834Z,100673.84
2022-11-10T01:30:57.067Z,100674.56
2022-11-10T01:33:23.859Z,100669.19
2022-11-10T01:35:50.544Z,100673.59
2022-11-10T01:38:16.983Z,100676.28
2022-11-10T01:40:43.726Z,100676.88
2022-11-10T01:43:11.163Z,100668.94
2022-11-10T01:45:43.680Z,100676.03
2022-11-10T01:48:12.563Z,100669.91
2022-11-10T01:50:41.745Z,100669.91
2022-11-10T01:53:11.491Z,100676.16
2022-11-10T01:55:39.085Z,100681.28
2022-11-10T01:58:05.840Z,100681.41
2022-11-10T02:00:32.358Z,100683.00
2022-11-10T02:03:04.037Z,100682.03
2022-11-10T02:05:30.813Z,100679.81
2022-11-10T02:07:57.346Z,100683.09
2022-11-10T02:10:23.738Z,100684.69
2022-11-10T02:12:50.209Z,100686.50
2022-11-10T02:15:17.642Z,100688.38
2022-11-10T02:17:45.739Z,100689.19
2022-11-10T02:20:13.654Z,100696.44
2022-11-10T02:22:40.096Z,100687.72
2022-11-10T02:25:07.120Z,100691.41
2022-11-10T02:27:33.807Z,100695.19
2022-11-10T02:30:00.500Z,100704.13
2022-11-10T02:32:28.232Z,100698.75
2022-11-10T02:34:54.858Z,100706.56
2022-11-10T02:37:21.421Z,100707.66
2022-11-10T02:39:47.767Z,100697.66
2022-11-10T02:42:14.158Z,100710.22
2022-11-10T02:44:40.726Z,100717.47
2022-11-10T02:47:07.766Z,100712.19
2022-11-10T02:49:34.178Z,100716.22
2022-11-10T02:52:00.562Z,100709.00
2022-11-10T02:54:26.970Z,100715.09
2022-11-10T02:56:53.389Z,100724.28
2022-11-10T02:59:19.782Z,100725.16
2022-11-10T03:01:46.251Z,100727.13
2022-11-10T03:04:12.761Z,100728.06
2022-11-10T03:06:39.235Z,100740.41
2022-11-10T03:09:06.117Z,100731.03
2022-11-10T03:11:32.737Z,100738.50
2022-11-10T03:14:02.091Z,100745.19
2022-11-10T03:16:28.828Z,100744.59
2022-11-10T03:18:55.222Z,100745.56
2022-11-10T03:21:21.601Z,100745.69
2022-11-10T03:23:48.024Z,100743.00
2022-11-10T03:26:14.475Z,100751.06
2022-11-10T03:28:40.894Z,100744.00
2022-11-10T03:31:07.272Z,100747.88
2022-11-10T03:33:33.667Z,100751.56
2022-11-10T03:36:00.108Z,100753.41
2022-11-10T03:38:26.525Z,100750.84
2022-11-10T03:43:39.345Z,100757.91
2022-11-10T03:46:05.830Z,100752.66
2022-11-10T03:48:32.268Z,100752.81
2022-11-10T03:50:58.609Z,100761.81
2022-11-10T03:53:25.115Z,100757.44
2022-11-10T03:55:51.593Z,100762.06
2022-11-10T03:58:17.972Z,100755.84
2022-11-10T04:00:44.363Z,100768.53
2022-11-10T04:03:10.797Z,100769.53
2022-11-10T04:05:55.786Z,100773.06
2022-11-10T04:08:40.660Z,100770.13
2022-11-10T04:11:07.061Z,100776.50
2022-11-10T04:13:52.006Z,100781.13
2022-11-10T04:16:18.418Z,100785.06
2022-11-10T04:18:44.801Z,100789.81
2022-11-10T04:21:12.214Z,100787.72
2022-11-10T04:23:38.627Z,100779.91
2022-11-10T04:26:26.462Z,100775.03
2022-11-10T04:28:53.658Z,100780.13
2022-11-10T04:31:21.264Z,100787.72
2022-11-10T04:33:48.353Z,100793.34
2022-11-10T04:36:16.599Z,100794.31
2022-11-10T04:38:43.042Z,100791.63
2022-11-10T04:41:09.495Z,100789.66
2022-11-10T04:43:36.204Z,100784.19
2022-11-10T04:46:03.785Z,100788.69
2022-11-10T04:48:30.772Z,100790.66
2022-11-10T04:51:02.525Z,100788.56
2022-11-10T04:53:28.918Z,100798.72
2022-11-10T04:55:55.336Z,100797.84
2022-11-10T04:58:21.763Z,100798.59
2022-11-10T05:00:48.212Z,100811.16
2022-11-10T05:03:15.040Z,100822.03
2022-11-10T05:05:41.703Z,100830.09
2022-11-10T05:08:08.195Z,100830.97
2022-11-10T05:10:35.544Z,100829.75
2022-11-10T05:13:02.052Z,100826.19
2022-11-10T05:15:28.438Z,100831.69
2022-11-10T05:17:55.265Z,100828.66
2022-11-10T05:20:22.913Z,100829.16
2022-11-10T05:23:09.121Z,100829.88
2022-11-10T05:25:37.297Z,100835.63
2022-11-10T05:28:04.356Z,100838.44
2022-11-10T05:30:32.017Z,100836.47
2022-11-10T05:32:58.799Z,100845.28
2022-11-10T05:35:25.617Z,100845.16
2022-11-10T05:37:52.217Z,100844.41
2022-11-10T05:40:18.615Z,100852.97
2022-11-10T05:42:45.976Z,100859.09
2022-11-10T05:45:12.395Z,100861.28
2022-11-10T05:47:39.418Z,100872.28
2022-11-10T05:50:06.487Z,100876.66
2022-11-10T05:52:32.911Z,100873.75
2022-11-10T05:54:59.384Z,100886.44
2022-11-10T05:57:25.757Z,100890.63
2022-11-10T05:59:52.129Z,100891.94
2022-11-10T06:02:18.518Z,100894.00
2022-11-10T06:04:44.898Z,100900.75
2022-11-10T06:07:12.027Z,100908.56
2022-11-10T06:09:38.529Z,100918.59
2022-11-10T06:12:05.029Z,100923.09
2022-11-10T06:14:31.418Z,100924.69
2022-11-10T06:16:57.833Z,100928.88
2022-11-10T06:19:24.229Z,100924.00
2022-11-10T06:21:52.830Z,100930.34
2022-11-10T06:24:23.506Z,100935.59
2022-11-10T06:26:49.991Z,100952.59
2022-11-10T06:29:16.444Z,100943.53
2022-11-10T06:31:42.798Z,100953.94
2022-11-10T06:34:09.215Z,100941.38
2022-11-10T06:36:35.678Z,100953.50
2022-11-10T06:39:02.059Z,100954.34
2022-11-10T06:41:28.523Z,100955.19
2022-11-10T06:43:56.120Z,100961.31
2022-11-10T06:46:22.534Z,100968.28
2022-11-10T06:48:48.963Z,100969.78
2022-11-10T06:51:15.349Z,100974.28
2022-11-10T06:53:42.018Z,100975.41
2022-11-10T06:56:08.599Z,100980.78
2022-11-10T06:58:37.349Z,100984.97
2022-11-10T07:01:03.802Z,100993.53
2022-11-10T07:03:30.265Z,100997.06
2022-11-10T07:05:57.962Z,100991.16
2022-11-10T07:08:24.394Z,100995.34
2022-11-10T07:10:52.553Z,101010.41
2022-11-10T07:13:19.736Z,101000.50
2022-11-10T07:15:46.660Z,101008.44
2022-11-10T07:18:13.309Z,101013.97
2022-11-10T07:20:39.892Z,101016.50
2022-11-10T07:23:07.320Z,101017.50
2022-11-10T07:25:35.746Z,101014.69
2022-11-10T07:28:03.715Z,101019.59
2022-11-10T07:30:31.278Z,101020.47
2022-11-10T07:33:01.433Z,101024.84
2022-11-10T07:35:28.554Z,101026.69
2022-11-10T07:37:55.651Z,101030.13
2022-11-10T07:40:22.234Z,101028.28
2022-11-10T07:42:48.841Z,101033.44
2022-11-10T07:45:15.314Z,101038.81
2022-11-10T07:47:41.725Z,101038.94
2022-11-10T07:50:08.344Z,101044.94
2022-11-10T07:52:34.978Z,101050.69
2022-11-10T07:55:01.385Z,101047.03
2022-11-10T07:57:27.766Z,101046.16
2022-11-10T07:59:57.907Z,101045.06
2022-11-10T08:02:24.708Z,101043.88
2022-11-10T08:04:51.109Z,101054.00
2022-11-10T08:07:17.805Z,101056.47
2022-11-10T08:09:44.439Z,101058.69
2022-11-10T08:12:10.839Z,101061.88
2022-11-10T08:14:37.306Z,101065.44
2022-11-10T08:17:03.697Z,101070.72
2022-11-10T08:19:30.100Z,101068.84
2022-11-10T08:21:56.461Z,101078.53
2022-11-10T08:24:22.857Z,101083.19
2022-11-10T08:26:49.235Z,101080.00
2022-11-10T08:30:50.286Z,101083.06
2022-11-10T08:33:19.980Z,101085.63
2022-11-10T08:35:48.801Z,101084.41
2022-11-10T08:38:21.134Z,101096.06
2022-11-10T08:40:47.981Z,101092.00
2022-11-10T08:43:15.534Z,101101.56
2022-11-10T08:45:43.706Z,101112.59
2022-11-10T08:48:17.632Z,101109.41
2022-11-10T08:50:44.522Z,101114.06
2022-11-10T08:53:16.160Z,101121.41
2022-11-10T08:55:43.926Z,101128.16
2022-11-10T08:58:13.625Z,101149.44
2022-11-10T09:00:40.190Z,101140.03
2022-11-10T09:03:15.261Z,101148.34
2022-11-10T09:05:42.665Z,101147.84
2022-11-10T09:08:09.937Z,101151.69
2022-11-10T09:10:41.839Z,101147.84
2022-11-10T09:13:08.906Z,101144.22
2022-11-10T09:15:35.817Z,101134.75
2022-11-10T09:18:04.453Z,101138.06
2022-11-10T09:20:33.733Z,101139.63
2022-11-10T09:23:17.661Z,101156.28
2022-11-10T09:25:52.769Z,101153.69
2022-11-10T09:28:20.288Z,101156.25
2022-11-10T09:30:51.244Z,101148.97
2022-11-10T09:33:18.440Z,101145.84
2022-11-10T09:35:45.174Z,101148.66
2022-11-10T09:38:12.163Z,101152.66
2022-11-10T09:41:03.387Z,101150.81
2022-11-10T09:44:02.067Z,101156.22
2022-11-10T09:46:35.418Z,101151.28
2022-11-10T09:49:13.029Z,101158.88
2022-11-10T09:51:47.991Z,101162.63
2022-11-10T09:54:37.113Z,101165.13
2022-11-10T09:57:06.303Z,101170.56
2022-11-10T09:59:34.421Z,101171.13
2022-11-10T10:02:05.985Z,101165.19
2022-11-10T10:04:48.776Z,101180.44
2022-11-10T10:07:43.954Z,101180.88
2022-11-10T10:10:17.668Z,101183.47
2022-11-10T10:12:54.645Z,101184.34
2022-11-10T10:15:30.276Z,101187.03
2022-11-10T10:18:03.209Z,101178.78
2022-11-10T10:20:46.761Z,101178.81
2022-11-10T10:23:35.209Z,101192.59
2022-11-10T10:26:15.602Z,101186.91
2022-11-10T10:28:46.663Z,101189.75
2022-11-10T10:31:22.014Z,101185.19
2022-11-10T10:33:49.166Z,101194.19
2022-11-10T10:36:23.759Z,101180.06
2022-11-10T10:39:04.610Z,101183.03
2022-11-10T10:41:34.655Z,101187.50
2022-11-10T10:44:03.092Z,101194.47
2022-11-10T10:46:35.766Z,101193.31
2022-11-10T10:49:32.948Z,101192.50
2022-11-10T10:52:07.123Z,101191.91
2022-11-10T10:54:36.363Z,101193.31
2022-11-10T10:57:20.778Z,101194.75
2022-11-10T10:59:47.463Z,101194.47
2022-11-10T11:02:40.350Z,101201.75
2022-11-10T11:05:15.963Z,101194.19
2022-11-10T11:07:56.001Z,101189.75
2022-11-10T11:10:34.537Z,101193.47
2022-11-10T11:13:14.672Z,101196.75
2022-11-10T11:15:41.208Z,101209.59
2022-11-10T11:18:20.494Z,101204.72
2022-11-10T11:21:20.952Z,101218.28
2022-11-10T11:24:03.616Z,101228.41
2022-11-10T11:26:43.791Z,101229.66
2022-11-10T11:29:32.881Z,101228.78
2022-11-10T11:32:21.777Z,101222.78
2022-11-10T11:35:03.040Z,101225.13
2022-11-10T11:37:46.165Z,101220.88
2022-11-10T11:40:37.969Z,101228.28
2022-11-10T11:43:23.142Z,101224.88
2022-11-10T11:45:59.793Z,101234.03
2022-11-10T11:49:15.449Z,101233.69
2022-11-10T11:52:03.422Z,101241.22
2022-11-10T11:54:47.416Z,101236.34
2022-11-10T11:57:29.093Z,101232.00
2022-11-10T12:00:02.556Z,101236.63
2022-11-10T12:02:52.673Z,101240.69
2022-11-10T12:05:37.901Z,101237.56
2022-11-10T12:08:33.054Z,101242.16
2022-11-10T12:11:05.277Z,101250.00
2022-11-10T12:13:31.709Z,101247.97
2022-11-10T12:16:17.020Z,101248.19
2022-11-10T12:18:57.900Z,101247.81
2022-11-10T12:21:34.973Z,101249.69
2022-11-10T12:24:29.563Z,101244.78
2022-11-10T12:26:59.831Z,101266.50
2022-11-10T12:29:43.041Z,101275.31
2022-11-10T12:32:15.044Z,101270.91
2022-11-10T12:34:50.333Z,101268.22
2022-11-10T12:37:28.429Z,101278.50
2022-11-10T12:40:17.789Z,101282.94
2022-11-10T12:42:51.308Z,101285.50
2022-11-10T12:45:22.779Z,101292.13
2022-11-10T12:47:49.831Z,101283.44
2022-11-10T12:50:16.254Z,101282.44
2022-11-10T12:53:11.822Z,101283.91
2022-11-10T12:55:46.223Z,101290.50
2022-11-10T12:58:14.488Z,101298.72
2022-11-10T13:00:55.480Z,101300.91
2022-11-10T13:03:32.454Z,101288.78
2022-11-10T13:06:02.293Z,101291.22
2022-11-10T13:08:45.649Z,101288.78
2022-11-10T13:11:12.062Z,101286.44
2022-11-10T13:13:53.176Z,101291.34
2022-11-10T13:16:44.819Z,101287.88
2022-11-10T13:19:38.981Z,101298.91
2022-11-10T13:22:10.297Z,101298.34
2022-11-10T13:24:42.492Z,101296.09
2022-11-10T13:27:32.966Z,101302.38
2022-11-10T13:30:00.258Z,101299.19
2022-11-10T13:32:32.293Z,101296.38
2022-11-10T13:35:29.557Z,101301.16
2022-11-10T13:38:00.381Z,101304.69
2022-11-10T13:40:34.738Z,101311.44
2022-11-10T13:43:01.152Z,101307.88
2022-11-10T13:45:33.742Z,101314.97
2022-11-10T13:48:34.930Z,101329.69
2022-11-10T13:51:14.757Z,101321.47
2022-11-10T13:54:42.743Z,101321.34
2022-11-10T13:57:34.628Z,101326.75
2022-11-10T14:00:07.665Z,101321.47
2022-11-10T14:02:53.048Z,101326.13
2022-11-10T14:05:29.040Z,101330.69
2022-11-10T14:08:04.326Z,101329.28
2022-11-10T14:11:02.469Z,101341.41
2022-11-10T14:13:44.914Z,101343.13
2022-11-10T14:16:18.974Z,101346.28
2022-11-10T14:18:51.697Z,101355.22
2022-11-10T14:21:41.042Z,101353.16
2022-11-10T14:24:11.710Z,101346.81
2022-11-10T14:26:46.768Z,101357.59
2022-11-10T14:29:20.971Z,101353.03
2022-11-10T14:31:47.741Z,101348.75
2022-11-10T14:34:18.581Z,101352.06
2022-11-10T14:36:56.654Z,101355.63
2022-11-10T14:39:28.982Z,101355.38
2022-11-10T14:41:57.326Z,101370.22
2022-11-10T14:44:27.074Z,101356.50
2022-11-10T14:46:54.846Z,101361.06
2022-11-10T14:49:25.886Z,101353.81
2022-11-10T14:51:57.610Z,101362.16
2022-11-10T14:54:27.468Z,101364.13
2022-11-10T14:56:55.760Z,101365.06
2022-11-10T14:59:24.314Z,101372.31
2022-11-10T15:01:54.837Z,101364.94
2022-11-10T15:04:28.733Z,101372.41
2022-11-10T15:06:56.629Z,101373.41
2022-11-10T15:09:27.012Z,101380.59
2022-11-10T15:12:02.478Z,101382.31
2022-11-10T15:14:39.507Z,101387.59
2022-11-10T15:17:11.756Z,101389.56
2022-11-10T15:19:44.098Z,101394.09
2022-11-10T15:22:22.102Z,101383.44
2022-11-10T15:24:51.625Z,101388.06
2022-11-10T15:27:27.830Z,101391.75
2022-11-10T15:29:56.084Z,101393.81
2022-11-10T15:32:28.058Z,101396.63
2022-11-10T15:35:09.088Z,101393.81
2022-11-10T15:37:35.760Z,101403.41
2022-11-10T15:40:31.535Z,101399.72
2022-11-10T15:43:29.058Z,101410.97
2022-11-10T15:45:59.798Z,101416.22
2022-11-10T15:48:37.797Z,101419.25
2022-11-10T15:51:04.747Z,101422.41
2022-11-10T15:53:37.447Z,101420.91
2022-11-10T15:56:04.297Z,101439.16
2022-11-10T15:58:30.868Z,101425.47
2022-11-10T16:00:57.387Z,101422.78
2022-11-10T16:03:24.187Z,101428.06
2022-11-10T16:05:50.729Z,101434.53
2022-11-10T16:08:22.522Z,101431.06
2022-11-10T16:10:54.071Z,101440.75
2022-11-10T16:13:26.660Z,101443.56
2022-11-10T16:15:53.988Z,101452.50
2022-11-10T16:18:23.772Z,101453.50
2022-11-10T16:20:52.225Z,101450.47
2022-11-10T16:23:19.656Z,101451.47
2022-11-10T16:25:48.616Z,101468.50
2022-11-10T16:28:24.098Z,101477.75
2022-11-10T16:30:51.661Z,101474.88
2022-11-10T16:33:20.168Z,101473.25
2022-11-10T16:35:50.281Z,101481.84
2022-11-10T16:38:22.437Z,101480.97
2022-11-10T16:40:54.671Z,101473.19
2022-11-10T16:43:22.069Z,101479.03
2022-11-10T16:45:51.314Z,101483.22
2022-11-10T16:48:38.056Z,101485.09
2022-11-10T16:51:07.123Z,101494.97
2022-11-10T16:53:33.662Z,101502.19
2022-11-10T16:56:00.166Z,101512.13
2022-11-10T16:58:28.156Z,101507.72
2022-11-10T17:00:59.216Z,101510.41
2022-11-10T17:03:35.557Z,101521.03
2022-11-10T17:06:02.211Z,101531.81
2022-11-10T17:08:31.007Z,101524.81
2022-11-10T17:10:57.546Z,101532.25
2022-11-10T17:13:25.141Z,101541.31
2022-11-10T17:16:03.143Z,101537.78
2022-11-10T17:18:29.827Z,101544.91
2022-11-10T17:20:56.488Z,101548.75
2022-11-10T17:23:24.973Z,101558.66
2022-11-10T17:25:54.119Z,101566.25
2022-11-10T17:28:20.982Z,101559.44
2022-11-10T17:30:47.524Z,101562.66
2022-11-10T17:33:14.092Z,101564.81
2022-11-10T17:35:45.290Z,101560.84
2022-11-10T17:38:17.145Z,101571.38
2022-11-10T17:40:43.918Z,101570.56
2022-11-10T17:43:12.325Z,101568.06
2022-11-10T17:45:39.707Z,101576.91
2022-11-10T17:48:07.332Z,101581.22
2022-11-10T17:50:36.516Z,101584.84
2022-11-10T17:53:24.080Z,101593.28
2022-11-10T17:55:51.352Z,101585.19
2022-11-10T17:58:18.195Z,101589.59
2022-11-10T18:00:46.207Z,101594.47
2022-11-10T18:03:18.379Z,101600.91
2022-11-10T18:05:45.575Z,101593.91
2022-11-10T18:08:13.595Z,101601.25
2022-11-10T18:10:46.452Z,101606.28
2022-11-10T18:13:13.017Z,101609.66
2022-11-10T18:15:43.665Z,101610.59
2022-11-10T18:18:11.975Z,101625.34
2022-11-10T18:20:39.042Z,101631.66
2022-11-10T18:23:07.240Z,101636.47
2022-11-10T18:25:34.813Z,101634.75
2022-11-10T18:28:01.361Z,101635.28
2022-11-10T18:30:32.262Z,101648.50
2022-11-10T18:33:02.983Z,101654.47
2022-11-10T18:35:29.718Z,101668.00
2022-11-10T18:37:57.437Z,101669.53
2022-11-10T18:40:23.973Z,101672.22
2022-11-10T18:42:50.541Z,101679.63
2022-11-10T18:45:17.088Z,101684.25
2022-11-10T18:47:43.573Z,101691.75
2022-11-10T18:50:10.621Z,101697.22
2022-11-10T18:52:37.191Z,101699.91
2022-11-10T18:55:03.759Z,101689.75
2022-11-10T18:57:30.253Z,101698.69
2022-11-10T18:59:56.788Z,101697.06
2022-11-10T19:02:23.274Z,101709.31
2022-11-10T19:04:53.502Z,101715.56
2022-11-10T19:07:20.699Z,101715.75
2022-11-10T19:09:48.335Z,101714.91
2022-11-10T19:12:14.991Z,101712.00
2022-11-10T19:14:41.477Z,101723.63
2022-11-10T19:17:08.074Z,101721.03
2022-11-10T19:19:34.594Z,101722.97
2022-11-10T19:22:01.145Z,101723.16
2022-11-10T19:24:28.960Z,101720.00
2022-11-10T19:26:56.883Z,101727.19
2022-11-10T19:29:23.804Z,101738.16
2022-11-10T19:31:50.330Z,101735.75
2022-11-10T19:34:18.888Z,101748.50
2022-11-10T19:36:46.095Z,101753.88
2022-11-10T19:39:12.809Z,101752.47
2022-11-10T19:41:39.481Z,101751.09
2022-11-10T19:44:06.061Z,101755.91
2022-11-10T19:46:36.602Z,101750.81
2022-11-10T19:49:04.276Z,101755.78
2022-11-10T19:51:30.782Z,101760.59
2022-11-10T19:54:02.654Z,101760.75
2022-11-10T19:56:32.149Z,101762.69
2022-11-10T19:58:59.463Z,101754.03
2022-11-10T20:01:26.575Z,101763.22
2022-11-10T20:03:53.333Z,101761.97
2022-11-10T20:06:21.839Z,101765.72
2022-11-10T20:08:49.226Z,101766.84
2022-11-10T20:11:19.259Z,101767.88
2022-11-10T20:13:45.925Z,101770.50
2022-11-10T20:16:13.004Z,101772.50
2022-11-10T20:18:40.610Z,101771.91
2022-11-10T20:21:13.043Z,101774.94
2022-11-10T20:23:40.322Z,101785.09
2022-11-10T20:26:09.982Z,101778.91
2022-11-10T20:28:38.211Z,101777.44
2022-11-10T20:31:07.754Z,101785.50
2022-11-10T20:33:35.529Z,101786.44
2022-11-10T20:36:19.967Z,101782.47
2022-11-10T20:38:47.715Z,101797.78
2022-11-10T20:41:20.188Z,101790.88
2022-11-10T20:43:47.168Z,101796.41
2022-11-10T20:46:33.300Z,101790.00
2022-11-10T20:49:02.902Z,101792.97
2022-11-10T20:51:29.471Z,101805.50
2022-11-10T20:53:56.976Z,101805.00
2022-11-10T20:56:29.287Z,101802.41
2022-11-10T20:58:56.575Z,101814.09
2022-11-10T21:01:23.750Z,101808.97
2022-11-10T21:03:50.445Z,101815.28
2022-11-10T21:06:17.365Z,101815.47
2022-11-10T21:08:43.899Z,101819.41
2022-11-10T21:11:10.753Z,101813.47
2022-11-10T21:13:37.571Z,101810.59
2022-11-10T21:16:06.122Z,101812.66
2022-11-10T21:18:36.886Z,101813.06
2022-11-10T21:21:04.932Z,101828.69
2022-11-10T21:23:31.967Z,101826.91
2022-11-10T21:26:01.248Z,101819.56
2022-11-10T21:28:27.791Z,101824.47
2022-11-10T21:31:05.391Z,101821.94
2022-11-10T21:33:31.965Z,101828.84
2022-11-10T21:36:06.082Z,101821.50
2022-11-10T21:38:32.838Z,101815.13
2022-11-10T21:40:59.507Z,101815.63
2022-11-10T21:43:26.096Z,101815.53
2022-11-10T21:46:02.843Z,101824.44
2022-11-10T21:48:29.627Z,101819.09
2022-11-10T21:51:01.113Z,101817.75
2022-11-10T21:53:27.828Z,101820.78
2022-11-10T21:56:02.353Z,101826.59
2022-11-10T21:58:29.177Z,101833.22
2022-11-10T22:01:07.552Z,101827.50
2022-11-10T22:03:34.978Z,101844.91
2022-11-10T22:06:05.886Z,101844.97
2022-11-10T22:08:33.177Z,101843.63
2022-11-10T22:11:18.484Z,101851.44
2022-11-10T22:14:03.726Z,101855.50
2022-11-10T22:17:07.143Z,101852.78
2022-11-10T22:19:35.389Z,101869.63
2022-11-10T22:22:04.188Z,101863.19
2022-11-10T22:24:30.939Z,101868.91
2022-11-10T22:26:59.593Z,101856.78
2022-11-10T22:29:32.170Z,101865.44
2022-11-10T22:32:02.547Z,101875.00
2022-11-10T22:34:29.214Z,101865.88
2022-11-10T22:36:55.938Z,101866.03
2022-11-10T22:39:22.810Z,101862.47
2022-11-10T22:42:08.252Z,101861.97
2022-11-10T22:44:36.258Z,101851.75
2022-11-10T22:47:02.824Z,101860.53
2022-11-10T22:49:29.376Z,101853.56
2022-11-10T22:51:55.926Z,101854.91
2022-11-10T22:54:23.943Z,101848.50
2022-11-10T22:56:51.500Z,101854.78
2022-11-10T22:59:18.878Z,101852.91
2022-11-10T23:01:45.806Z,101854.13
2022-11-10T23:04:12.657Z,101860.75
2022-11-10T23:06:39.778Z,101858.81
2022-11-10T23:09:06.393Z,101852.69
2022-11-10T23:11:33.753Z,101851.44
2022-11-10T23:14:00.514Z,101851.50
2022-11-10T23:16:32.065Z,101853.16
2022-11-10T23:18:59.060Z,101859.59
2022-11-10T23:21:29.021Z,101856.03
2022-11-10T23:23:56.270Z,101857.31
2022-11-10T23:26:30.098Z,101862.75
2022-11-10T23:28:56.688Z,101848.34
2022-11-10T23:31:25.724Z,101855.53
2022-11-10T23:33:56.636Z,101860.97
2022-11-10T23:36:25.210Z,101853.22
2022-11-10T23:38:52.002Z,101850.81
2022-11-10T23:41:21.080Z,101859.94
2022-11-10T23:43:47.696Z,101858.47
2022-11-10T23:46:14.738Z,101854.13
2022-11-10T23:48:42.211Z,101857.09
2022-11-10T23:51:11.222Z,101859.03
2022-11-10T23:53:38.192Z,101852.34
2022-11-10T23:56:07.332Z,101859.78
2022-11-10T23:58:33.892Z,101853.69
